Time;durP1;ratioP1;P1;durP2;ratioP2;P2;SDS_P1;SDS_P2;PMS_P1;PMS_P2;Temp;Humidity;BMP_temperature;BMP_pressure;BME280_temperature;BME280_humidity;BME280_pressure;Samples;Min_cycle;Max_cycle;Signal;HPM_P1;HPM_P2
2022/02/20 00:02:24;;;;;;;11.50;2.60;;;7.30;99.90;;;;;;5025955;28;20201;-67
2022/02/20 00:04:52;;;;;;;10.73;2.37;;;7.30;99.90;;;;;;5024800;28;20185;-67
2022/02/20 00:07:21;;;;;;;7.10;2.17;;;7.20;99.90;;;;;;5029136;28;20772;-67
2022/02/20 00:09:50;;;;;;;8.13;2.10;;;7.10;99.90;;;;;;5026648;28;20197;-67
2022/02/20 00:12:18;;;;;;;18.23;2.87;;;7.10;99.90;;;;;;5039753;28;20267;-67
2022/02/20 00:14:47;;;;;;;7.00;2.40;;;7.10;99.90;;;;;;5026709;28;20205;-67
2022/02/20 00:17:15;;;;;;;12.47;2.30;;;7.00;99.90;;;;;;5014311;28;20197;-67
2022/02/20 00:19:46;;;;;;;6.50;2.50;;;7.00;99.90;;;;;;5022890;28;20206;-67
2022/02/20 00:22:14;;;;;;;9.60;2.47;;;6.90;99.90;;;;;;5024960;28;20209;-67
2022/02/20 00:24:43;;;;;;;10.53;2.40;;;6.80;99.90;;;;;;5025659;28;20214;-67
2022/02/20 00:27:11;;;;;;;11.23;2.53;;;6.80;99.90;;;;;;5032890;28;20203;-68
2022/02/20 00:29:40;;;;;;;12.97;2.77;;;6.70;99.90;;;;;;5041247;28;20209;-67
2022/02/20 00:32:09;;;;;;;16.23;3.07;;;6.60;99.90;;;;;;5032391;28;20224;-67
2022/02/20 00:34:38;;;;;;;5.47;2.27;;;6.60;99.90;;;;;;5029725;28;20193;-67
2022/02/20 00:37:08;;;;;;;7.60;2.57;;;6.50;99.90;;;;;;5016453;28;20194;-67
2022/02/20 00:39:37;;;;;;;9.03;2.40;;;6.50;99.90;;;;;;5029807;28;20201;-67
2022/02/20 00:42:05;;;;;;;7.17;2.40;;;6.40;99.90;;;;;;5030460;28;20205;-67
2022/02/20 00:44:38;;;;;;;8.03;2.63;;;6.30;99.90;;;;;;5031000;28;20225;-67
2022/02/20 00:47:07;;;;;;;5.73;2.13;;;6.30;99.90;;;;;;5033724;28;20205;-68
2022/02/20 00:49:37;;;;;;;9.17;2.87;;;6.20;99.90;;;;;;5030363;28;20630;-68
2022/02/20 00:52:06;;;;;;;6.37;2.20;;;6.10;99.90;;;;;;5027234;28;20202;-67
2022/02/20 00:54:36;;;;;;;6.93;2.43;;;6.10;99.90;;;;;;5027008;28;20193;-68
2022/02/20 00:57:04;;;;;;;6.47;2.33;;;6.00;99.90;;;;;;5023157;28;20224;-67
2022/02/20 00:59:33;;;;;;;8.20;2.47;;;5.90;99.90;;;;;;5032948;28;20194;-67
2022/02/20 01:02:01;;;;;;;7.40;2.37;;;5.90;99.90;;;;;;5028761;28;20247;-67
2022/02/20 01:04:30;;;;;;;7.00;2.30;;;5.90;99.90;;;;;;5038821;28;20220;-67
2022/02/20 01:06:58;;;;;;;11.63;2.57;;;5.90;99.90;;;;;;5027112;28;20238;-67
2022/02/20 01:09:27;;;;;;;7.43;2.00;;;5.80;99.90;;;;;;5036471;28;20227;-67
2022/02/20 01:11:57;;;;;;;10.00;2.57;;;5.80;99.90;;;;;;5038454;28;20205;-67
2022/02/20 01:14:25;;;;;;;12.20;2.47;;;5.70;99.90;;;;;;5029165;28;20232;-67
2022/02/20 01:16:54;;;;;;;10.00;2.30;;;5.70;99.90;;;;;;5025062;28;20248;-67
2022/02/20 01:19:23;;;;;;;7.17;2.40;;;5.70;99.90;;;;;;5038516;28;20198;-67
2022/02/20 01:21:51;;;;;;;11.13;2.20;;;5.70;99.90;;;;;;5027085;28;20202;-67
2022/02/20 01:24:20;;;;;;;8.07;2.83;;;5.60;99.90;;;;;;5032004;28;20290;-67
2022/02/20 01:26:48;;;;;;;7.33;2.77;;;5.60;99.90;;;;;;5037846;28;20296;-67
2022/02/20 01:29:18;;;;;;;6.73;2.30;;;5.60;99.90;;;;;;5032976;28;20208;-68
2022/02/20 01:31:47;;;;;;;9.57;2.10;;;5.60;99.90;;;;;;5036653;28;20251;-67
2022/02/20 01:34:15;;;;;;;10.13;2.60;;;5.50;99.90;;;;;;5032014;28;20228;-67
2022/02/20 01:36:44;;;;;;;12.93;2.60;;;5.50;99.90;;;;;;5027495;28;20201;-67
2022/02/20 01:39:13;;;;;;;15.77;2.67;;;5.50;99.90;;;;;;5024943;28;20198;-67
2022/02/20 01:41:42;;;;;;;7.67;2.77;;;5.50;99.90;;;;;;5027805;28;20194;-67
2022/02/20 01:44:10;;;;;;;12.67;2.93;;;5.50;99.90;;;;;;5023540;28;20217;-67
2022/02/20 01:46:44;;;;;;;11.73;2.80;;;5.50;99.90;;;;;;5035789;28;20296;-68
2022/02/20 01:49:14;;;;;;;8.50;2.77;;;5.40;99.90;;;;;;5030460;28;20202;-67
2022/02/20 01:51:42;;;;;;;9.63;2.60;;;5.50;99.90;;;;;;5033037;28;20213;-67
2022/02/20 01:54:11;;;;;;;6.87;2.47;;;5.50;99.90;;;;;;5035912;28;20276;-67
2022/02/20 01:56:40;;;;;;;14.37;2.73;;;5.50;99.90;;;;;;5021356;28;20198;-67
2022/02/20 01:59:08;;;;;;;12.80;3.23;;;5.60;99.90;;;;;;5020646;28;20209;-67
2022/02/20 02:01:37;;;;;;;12.77;3.00;;;5.60;99.90;;;;;;5026027;28;20251;-67
2022/02/20 02:04:07;;;;;;;14.50;3.73;;;5.60;99.90;;;;;;5036919;28;20304;-67
2022/02/20 02:06:36;;;;;;;10.90;3.50;;;5.60;99.90;;;;;;5025218;28;20276;-67
2022/02/20 02:09:05;;;;;;;13.17;3.40;;;5.60;99.90;;;;;;5030339;28;20376;-67
2022/02/20 02:11:34;;;;;;;14.83;3.13;;;5.60;99.90;;;;;;5026982;28;20196;-67
2022/02/20 02:14:03;;;;;;;16.33;3.20;;;5.60;99.90;;;;;;5042902;28;20280;-67
2022/02/20 02:16:31;;;;;;;21.97;3.90;;;5.70;99.90;;;;;;5028025;28;20276;-67
2022/02/20 02:19:00;;;;;;;14.63;3.33;;;5.80;99.90;;;;;;5034052;28;20276;-67
2022/02/20 02:21:30;;;;;;;15.40;3.70;;;5.80;99.90;;;;;;5029089;28;20277;-67
2022/02/20 02:24:00;;;;;;;18.53;3.83;;;5.90;99.90;;;;;;5040045;28;20316;-68
2022/02/20 02:26:30;;;;;;;13.90;3.83;;;5.90;99.90;;;;;;5028723;28;20207;-67
2022/02/20 02:28:59;;;;;;;29.70;4.27;;;6.00;99.90;;;;;;5028783;28;20220;-67
2022/02/20 02:31:28;;;;;;;28.23;4.77;;;6.10;99.90;;;;;;5030765;28;20193;-67
2022/02/20 02:33:56;;;;;;;17.67;3.83;;;6.20;99.90;;;;;;5028490;28;20228;-67
2022/02/20 02:36:24;;;;;;;27.90;4.70;;;6.30;99.90;;;;;;5031357;28;20212;-67
2022/02/20 02:38:53;;;;;;;28.17;4.40;;;6.40;99.90;;;;;;5031817;28;20751;-67
2022/02/20 02:41:22;;;;;;;17.57;4.37;;;6.50;99.90;;;;;;5024940;28;20308;-67
2022/02/20 02:43:52;;;;;;;22.90;4.20;;;6.60;99.90;;;;;;5032111;28;20365;-67
2022/02/20 02:46:21;;;;;;;20.47;4.23;;;6.70;99.90;;;;;;5025386;28;20317;-67
2022/02/20 02:48:49;;;;;;;27.30;4.27;;;6.80;99.90;;;;;;5027053;28;20236;-68
2022/02/20 02:51:18;;;;;;;27.30;4.33;;;6.80;99.90;;;;;;5034867;28;20217;-67
2022/02/20 02:53:47;;;;;;;25.50;4.10;;;6.90;99.90;;;;;;5029518;28;20267;-67
2022/02/20 02:56:15;;;;;;;23.00;4.50;;;7.00;99.90;;;;;;5028206;28;20259;-67
2022/02/20 02:58:45;;;;;;;26.60;4.93;;;7.00;99.90;;;;;;5026421;28;20208;-67
2022/02/20 03:01:14;;;;;;;32.67;5.10;;;7.00;99.90;;;;;;5031640;28;20201;-67
2022/02/20 03:03:43;;;;;;;26.83;4.57;;;7.10;99.90;;;;;;5027681;28;20208;-67
2022/02/20 03:06:14;;;;;;;28.73;4.57;;;7.10;99.90;;;;;;5021754;28;20802;-67
2022/02/20 03:08:42;;;;;;;35.77;4.73;;;7.20;99.90;;;;;;5034889;28;20710;-67
2022/02/20 03:11:11;;;;;;;37.17;5.90;;;7.30;99.90;;;;;;5031548;28;20603;-67
2022/02/20 03:13:40;;;;;;;27.87;4.60;;;7.40;99.90;;;;;;5031783;28;20586;-67
2022/02/20 03:16:10;;;;;;;37.03;5.80;;;7.40;99.90;;;;;;5025012;28;20274;-67
2022/02/20 03:18:39;;;;;;;27.50;4.80;;;7.40;99.90;;;;;;5032402;28;20201;-67
2022/02/20 03:21:08;;;;;;;36.20;5.90;;;7.40;99.90;;;;;;5026056;28;20614;-67
2022/02/20 03:23:36;;;;;;;34.13;5.40;;;7.50;99.90;;;;;;5023834;28;20255;-68
2022/02/20 03:26:05;;;;;;;50.47;6.40;;;7.50;99.90;;;;;;5023543;28;20208;-67
2022/02/20 03:28:34;;;;;;;35.33;5.57;;;7.50;99.90;;;;;;5027651;28;20536;-67
2022/02/20 03:31:02;;;;;;;38.63;5.80;;;7.50;99.90;;;;;;5027339;28;20201;-67
2022/02/20 03:33:32;;;;;;;38.00;5.20;;;7.50;99.90;;;;;;5028322;28;20280;-67
2022/02/20 03:36:01;;;;;;;35.90;5.53;;;7.50;99.90;;;;;;5021454;28;20201;-67
2022/02/20 03:38:29;;;;;;;40.03;5.33;;;7.40;99.90;;;;;;5035150;28;20262;-67
2022/02/20 03:40:57;;;;;;;33.53;5.63;;;7.40;99.90;;;;;;5022546;28;20220;-67
2022/02/20 03:43:26;;;;;;;29.80;5.43;;;7.30;99.90;;;;;;5025136;28;20606;-67
2022/02/20 03:45:56;;;;;;;45.47;5.90;;;7.40;99.90;;;;;;5036164;28;20212;-67
2022/02/20 03:48:24;;;;;;;48.23;6.07;;;7.40;99.90;;;;;;5035209;28;20200;-68
2022/02/20 03:50:54;;;;;;;37.40;5.70;;;7.40;99.90;;;;;;5022625;28;20665;-67
2022/02/20 03:53:23;;;;;;;41.33;6.73;;;7.50;99.90;;;;;;5024019;28;20206;-67
2022/02/20 03:55:51;;;;;;;48.60;7.87;;;7.50;99.90;;;;;;5029966;28;20659;-67
2022/02/20 03:58:20;;;;;;;37.07;6.20;;;7.50;99.90;;;;;;5025725;28;20224;-67
2022/02/20 04:00:48;;;;;;;44.17;6.63;;;7.60;99.90;;;;;;5023903;28;20599;-67
2022/02/20 04:03:17;;;;;;;47.73;6.53;;;7.60;99.90;;;;;;5026382;28;20247;-67
2022/02/20 04:05:45;;;;;;;42.07;6.60;;;7.70;99.90;;;;;;5038286;28;20200;-67
2022/02/20 04:08:15;;;;;;;46.40;7.40;;;7.70;99.90;;;;;;5028535;28;20784;-67
2022/02/20 04:10:43;;;;;;;30.40;6.67;;;7.70;99.90;;;;;;5022644;28;20795;-67
2022/02/20 04:13:12;;;;;;;36.60;5.70;;;7.80;99.90;;;;;;5037283;28;20664;-67
2022/02/20 04:15:41;;;;;;;36.33;5.33;;;7.80;99.90;;;;;;5028269;28;20193;-68
2022/02/20 04:18:10;;;;;;;43.33;6.67;;;7.80;99.90;;;;;;5013290;28;20190;-67
2022/02/20 04:20:38;;;;;;;36.50;6.83;;;7.80;99.90;;;;;;5032311;28;20690;-68
2022/02/20 04:23:07;;;;;;;39.43;6.87;;;7.80;99.90;;;;;;5037199;28;20276;-67
2022/02/20 04:25:37;;;;;;;30.53;6.07;;;7.80;99.90;;;;;;5032678;28;20710;-67
2022/02/20 04:28:05;;;;;;;35.53;6.60;;;7.90;99.90;;;;;;5033038;28;20831;-67
2022/02/20 04:30:34;;;;;;;42.07;6.67;;;7.90;99.90;;;;;;5031341;28;20220;-67
2022/02/20 04:33:02;;;;;;;33.17;5.93;;;7.90;99.90;;;;;;5019688;28;20606;-67
2022/02/20 04:35:31;;;;;;;36.03;5.60;;;7.90;99.90;;;;;;5031320;28;20194;-67
2022/02/20 04:38:00;;;;;;;36.10;5.67;;;8.00;99.90;;;;;;5024580;28;20197;-67
2022/02/20 04:40:28;;;;;;;29.77;5.67;;;8.00;99.90;;;;;;5041142;28;20220;-67
2022/02/20 04:42:58;;;;;;;42.73;5.87;;;8.00;99.90;;;;;;5039659;28;20221;-67
2022/02/20 04:45:27;;;;;;;40.47;5.07;;;8.10;99.90;;;;;;5031710;28;20296;-67
2022/02/20 04:47:55;;;;;;;31.87;4.93;;;8.10;99.90;;;;;;5034001;28;20201;-67
2022/02/20 04:50:24;;;;;;;34.80;6.47;;;8.20;99.90;;;;;;5024914;28;20191;-67
2022/02/20 04:52:53;;;;;;;36.30;6.00;;;8.20;99.90;;;;;;5031516;28;20206;-68
2022/02/20 04:55:21;;;;;;;40.27;6.17;;;8.20;99.90;;;;;;5026401;28;20662;-67
2022/02/20 04:57:50;;;;;;;25.93;4.83;;;8.20;99.90;;;;;;5025144;28;20281;-67
2022/02/20 05:00:20;;;;;;;46.77;5.63;;;8.30;99.90;;;;;;5034615;28;20734;-67
2022/02/20 05:03:13;;;;;;;34.47;4.50;;;8.30;99.90;;;;;;5029887;28;20759;-67
2022/02/20 05:06:19;;;;;;;28.40;4.63;;;8.30;99.90;;;;;;5023225;28;20236;-67
2022/02/20 05:08:48;;;;;;;35.60;4.60;;;8.30;99.90;;;;;;5018668;28;20185;-67
2022/02/20 05:11:16;;;;;;;33.10;4.67;;;8.20;99.90;;;;;;5037406;28;20225;-67
2022/02/20 05:13:44;;;;;;;34.10;5.07;;;8.20;99.90;;;;;;5027408;28;20213;-67
2022/02/20 05:16:14;;;;;;;35.07;4.40;;;8.20;99.90;;;;;;5023696;28;20543;-67
2022/02/20 05:18:43;;;;;;;23.07;4.30;;;8.20;99.90;;;;;;5037919;28;20193;-67
2022/02/20 05:21:11;;;;;;;35.43;5.10;;;8.20;99.90;;;;;;5035646;28;20198;-67
2022/02/20 05:23:39;;;;;;;30.30;4.20;;;8.10;99.90;;;;;;5026556;28;20329;-67
2022/02/20 05:26:08;;;;;;;20.07;4.60;;;8.10;99.90;;;;;;5034537;28;20297;-67
2022/02/20 05:28:36;;;;;;;27.80;4.80;;;8.10;99.90;;;;;;5016250;28;20210;-67
2022/02/20 05:31:04;;;;;;;25.87;4.60;;;8.10;99.90;;;;;;5029772;28;20695;-67
2022/02/20 05:33:34;;;;;;;18.07;4.37;;;8.10;99.90;;;;;;5025504;28;20277;-67
2022/02/20 05:36:03;;;;;;;28.20;4.90;;;8.10;99.90;;;;;;5022139;28;20232;-68
2022/02/20 05:38:31;;;;;;;23.47;4.90;;;8.20;99.90;;;;;;5032794;28;20611;-67
2022/02/20 05:41:00;;;;;;;24.87;4.83;;;8.10;99.90;;;;;;5021611;28;20237;-67
2022/02/20 05:43:28;;;;;;;24.97;5.50;;;8.20;99.90;;;;;;5032284;28;20282;-68
2022/02/20 05:45:56;;;;;;;21.10;4.93;;;8.20;99.90;;;;;;5025105;28;20216;-67
2022/02/20 05:48:25;;;;;;;28.90;5.50;;;8.20;99.90;;;;;;5028752;28;20739;-68
2022/02/20 05:50:54;;;;;;;26.90;5.43;;;8.20;99.90;;;;;;5034159;28;20220;-67
2022/02/20 05:53:23;;;;;;;24.17;5.47;;;8.20;99.90;;;;;;5031081;28;20194;-68
2022/02/20 05:55:51;;;;;;;23.00;5.70;;;8.30;99.90;;;;;;5027490;28;20693;-68
2022/02/20 05:58:20;;;;;;;24.10;6.10;;;8.30;99.90;;;;;;5032157;28;20548;-68
2022/02/20 06:00:48;;;;;;;20.43;5.40;;;8.30;99.90;;;;;;5024146;28;20277;-67
2022/02/20 06:03:17;;;;;;;22.67;5.30;;;8.30;99.90;;;;;;5031371;28;20197;-67
2022/02/20 06:05:45;;;;;;;18.83;4.83;;;8.40;99.90;;;;;;5028507;28;20205;-67
2022/02/20 06:08:15;;;;;;;19.03;4.37;;;8.40;99.90;;;;;;5029344;28;20316;-67
2022/02/20 06:10:43;;;;;;;23.97;5.07;;;8.40;99.90;;;;;;5033277;28;20198;-67
2022/02/20 06:13:13;;;;;;;19.67;4.73;;;8.50;99.90;;;;;;5038760;28;20216;-68
2022/02/20 06:15:42;;;;;;;18.60;4.00;;;8.50;99.90;;;;;;5033092;28;20275;-67
2022/02/20 06:18:10;;;;;;;22.60;4.67;;;8.60;99.90;;;;;;5023905;28;20186;-68
2022/02/20 06:20:38;;;;;;;25.97;4.90;;;8.60;99.90;;;;;;5017805;28;20289;-68
2022/02/20 06:23:07;;;;;;;24.57;4.17;;;8.60;99.90;;;;;;5044593;28;20254;-67
2022/02/20 06:25:37;;;;;;;23.80;5.13;;;8.60;99.90;;;;;;5033680;28;20207;-67
2022/02/20 06:28:05;;;;;;;18.37;5.60;;;8.60;99.90;;;;;;5019819;28;20491;-67
2022/02/20 06:30:34;;;;;;;25.53;5.63;;;8.60;99.90;;;;;;5023511;28;20272;-69
2022/02/20 06:33:02;;;;;;;21.70;5.70;;;8.60;99.90;;;;;;5029902;28;20192;-67
2022/02/20 06:35:31;;;;;;;21.63;5.30;;;8.60;99.90;;;;;;5032163;28;20684;-68
2022/02/20 06:37:59;;;;;;;17.47;4.77;;;8.60;99.90;;;;;;5034430;28;20223;-67
2022/02/20 06:40:28;;;;;;;14.07;5.23;;;8.60;99.90;;;;;;5030924;28;20221;-68
2022/02/20 06:42:57;;;;;;;16.83;4.87;;;8.60;99.90;;;;;;5037887;28;20619;-67
2022/02/20 06:45:26;;;;;;;20.83;5.07;;;8.60;99.90;;;;;;5029904;28;20201;-68
2022/02/20 06:47:54;;;;;;;13.13;4.47;;;8.60;99.90;;;;;;5033624;28;20462;-68
2022/02/20 06:50:23;;;;;;;17.20;4.50;;;8.70;99.90;;;;;;5028163;28;20194;-67
2022/02/20 06:52:51;;;;;;;15.20;5.20;;;8.70;99.90;;;;;;5035995;28;20280;-69
2022/02/20 06:55:20;;;;;;;17.97;5.13;;;8.70;99.90;;;;;;5024122;28;20189;-67
2022/02/20 06:57:48;;;;;;;17.80;4.80;;;8.80;99.90;;;;;;5024910;28;20301;-67
2022/02/20 07:00:18;;;;;;;20.57;4.97;;;8.80;99.90;;;;;;5031731;28;20654;-67
2022/02/20 07:02:46;;;;;;;11.30;4.30;;;8.70;99.90;;;;;;5033937;28;20233;-67
2022/02/20 07:05:15;;;;;;;13.63;4.30;;;8.80;99.90;;;;;;5025623;28;20231;-68
2022/02/20 07:07:43;;;;;;;18.00;5.30;;;8.80;99.90;;;;;;5026000;28;20233;-67
2022/02/20 07:10:11;;;;;;;10.80;4.23;;;8.80;99.90;;;;;;5038248;28;20285;-67
2022/02/20 07:12:40;;;;;;;17.47;4.47;;;8.80;99.90;;;;;;5034755;28;20194;-68
2022/02/20 07:15:09;;;;;;;10.13;4.63;;;8.80;99.90;;;;;;5029348;28;20194;-68
2022/02/20 07:17:39;;;;;;;9.47;4.37;;;8.80;99.90;;;;;;5027296;28;20202;-68
2022/02/20 07:20:08;;;;;;;15.40;4.30;;;8.80;99.90;;;;;;5029301;28;20231;-68
2022/02/20 07:22:38;;;;;;;13.47;4.00;;;8.80;99.90;;;;;;5025026;28;20201;-68
2022/02/20 07:25:08;;;;;;;15.03;4.43;;;8.80;99.90;;;;;;5025537;28;20228;-68
2022/02/20 07:27:37;;;;;;;20.00;4.37;;;8.80;99.90;;;;;;5035042;28;20846;-68
2022/02/20 07:30:07;;;;;;;16.87;4.43;;;8.80;99.90;;;;;;5034749;28;20643;-68
2022/02/20 07:32:38;;;;;;;15.17;4.47;;;8.90;99.90;;;;;;5025012;28;20280;-68
2022/02/20 07:35:07;;;;;;;13.10;4.27;;;8.90;99.90;;;;;;5020262;28;20221;-69
2022/02/20 07:37:36;;;;;;;11.23;4.50;;;8.90;99.90;;;;;;5018925;28;20243;-69
2022/02/20 07:40:06;;;;;;;13.93;5.00;;;8.90;99.90;;;;;;5019357;28;20205;-69
2022/02/20 07:42:35;;;;;;;12.33;3.83;;;9.00;99.90;;;;;;5033400;28;20587;-68
2022/02/20 07:45:03;;;;;;;16.97;4.03;;;9.00;99.90;;;;;;5018407;28;20596;-68
2022/02/20 07:47:32;;;;;;;13.53;4.30;;;9.00;99.90;;;;;;5033573;28;20248;-69
2022/02/20 07:50:01;;;;;;;16.70;4.40;;;9.00;99.90;;;;;;5024647;28;20378;-68
2022/02/20 07:52:31;;;;;;;11.30;3.80;;;9.00;99.90;;;;;;5025607;28;20259;-69
2022/02/20 07:54:59;;;;;;;11.57;4.23;;;8.90;99.90;;;;;;5027207;28;20197;-69
2022/02/20 07:57:28;;;;;;;12.33;4.30;;;9.00;99.90;;;;;;5027073;28;20185;-69
2022/02/20 07:59:57;;;;;;;11.67;4.07;;;9.00;99.90;;;;;;5028118;28;20743;-69
2022/02/20 08:02:25;;;;;;;11.90;3.57;;;9.00;99.90;;;;;;5026368;28;20201;-68
2022/02/20 08:04:53;;;;;;;7.60;3.90;;;9.00;99.90;;;;;;5023110;28;20210;-69
2022/02/20 08:07:24;;;;;;;12.40;4.67;;;9.00;99.90;;;;;;5017158;28;20275;-69
2022/02/20 08:09:52;;;;;;;15.93;4.10;;;9.00;99.90;;;;;;5028339;28;20233;-69
2022/02/20 08:12:21;;;;;;;15.67;4.27;;;9.00;99.90;;;;;;5025771;28;20778;-68
2022/02/20 08:14:49;;;;;;;8.90;3.90;;;9.10;99.90;;;;;;5023182;28;20280;-69
2022/02/20 08:17:17;;;;;;;9.30;4.30;;;9.10;99.90;;;;;;5024360;28;20225;-69
2022/02/20 08:19:46;;;;;;;9.13;3.77;;;9.10;99.90;;;;;;5024400;28;20224;-68
2022/02/20 08:22:14;;;;;;;9.43;3.90;;;9.10;99.90;;;;;;5023449;28;20190;-68
2022/02/20 08:24:44;;;;;;;20.00;4.90;;;9.10;99.90;;;;;;5028418;28;20507;-68
2022/02/20 08:27:12;;;;;;;14.20;4.53;;;9.20;99.90;;;;;;5031883;28;20630;-68
2022/02/20 08:29:41;;;;;;;14.83;4.37;;;9.20;99.90;;;;;;5026118;28;20281;-68
2022/02/20 08:32:10;;;;;;;21.97;5.13;;;9.30;99.90;;;;;;5033323;28;20222;-69
2022/02/20 08:34:38;;;;;;;20.97;5.33;;;9.40;99.90;;;;;;5038654;28;20244;-68
2022/02/20 08:37:06;;;;;;;25.17;4.67;;;9.50;99.90;;;;;;5026611;28;20205;-69
2022/02/20 08:39:35;;;;;;;23.83;4.90;;;9.50;99.90;;;;;;5022244;28;20267;-68
2022/02/20 08:42:07;;;;;;;23.87;4.80;;;9.50;99.90;;;;;;5019754;28;20256;-68
2022/02/20 08:44:36;;;;;;;25.00;5.00;;;9.60;99.90;;;;;;5032803;28;20232;-68
2022/02/20 08:47:05;;;;;;;29.20;4.87;;;9.60;99.90;;;;;;5027989;28;20606;-68
2022/02/20 08:49:33;;;;;;;24.50;5.20;;;9.60;99.90;;;;;;5031930;28;20284;-69
2022/02/20 08:52:02;;;;;;;26.47;4.70;;;9.70;99.90;;;;;;5025995;28;20202;-68
2022/02/20 08:54:30;;;;;;;25.90;5.47;;;9.70;99.90;;;;;;5037590;28;20542;-68
2022/02/20 08:56:58;;;;;;;23.10;4.70;;;9.70;99.90;;;;;;5022368;28;20232;-68
2022/02/20 08:59:28;;;;;;;25.27;4.97;;;9.70;99.90;;;;;;5029359;28;20225;-69
2022/02/20 09:01:56;;;;;;;28.97;5.13;;;9.80;99.90;;;;;;5038183;28;20698;-67
2022/02/20 09:04:24;;;;;;;27.30;4.97;;;9.80;99.90;;;;;;5026670;28;20237;-68
2022/02/20 09:06:52;;;;;;;26.57;5.23;;;9.80;99.90;;;;;;5032019;28;20308;-68
2022/02/20 09:09:21;;;;;;;26.03;4.57;;;9.80;99.90;;;;;;5037762;28;20270;-67
2022/02/20 09:11:50;;;;;;;29.43;4.87;;;9.80;99.90;;;;;;5035058;28;20232;-68
2022/02/20 09:14:18;;;;;;;19.93;4.67;;;9.80;99.90;;;;;;5029089;28;20227;-67
2022/02/20 09:16:48;;;;;;;31.00;5.43;;;9.90;99.90;;;;;;5038924;28;20201;-68
2022/02/20 09:19:17;;;;;;;29.97;5.53;;;9.90;99.90;;;;;;5038658;28;20225;-68
2022/02/20 09:21:45;;;;;;;24.43;4.83;;;10.00;99.90;;;;;;5031015;28;20276;-68
2022/02/20 09:24:14;;;;;;;21.93;5.80;;;10.00;99.90;;;;;;5022711;28;20857;-67
2022/02/20 09:26:42;;;;;;;25.77;5.60;;;10.00;99.90;;;;;;5019317;28;20209;-67
2022/02/20 09:29:11;;;;;;;31.97;5.43;;;10.00;99.90;;;;;;5028997;28;20224;-67
2022/02/20 09:31:39;;;;;;;27.33;5.77;;;10.00;99.90;;;;;;5033031;28;20581;-67
2022/02/20 09:34:09;;;;;;;29.87;6.43;;;10.00;99.90;;;;;;5026817;28;20202;-68
2022/02/20 09:36:37;;;;;;;31.03;5.93;;;10.00;99.90;;;;;;5026599;28;20210;-68
2022/02/20 09:39:06;;;;;;;28.33;5.70;;;10.10;99.90;;;;;;5026902;28;20239;-67
2022/02/20 09:41:35;;;;;;;27.27;5.33;;;10.10;99.90;;;;;;5033872;28;20205;-68
2022/02/20 09:44:04;;;;;;;45.27;6.47;;;10.20;99.90;;;;;;5031865;28;20227;-67
2022/02/20 09:46:33;;;;;;;31.63;5.93;;;10.20;99.90;;;;;;5031325;28;20263;-68
2022/02/20 09:49:02;;;;;;;33.53;7.50;;;10.30;99.90;;;;;;5044501;28;20628;-67
2022/02/20 09:51:32;;;;;;;28.40;5.90;;;10.30;99.90;;;;;;5023415;28;20281;-68
2022/02/20 09:54:00;;;;;;;24.57;5.80;;;10.30;99.90;;;;;;5020397;28;20615;-67
2022/02/20 09:56:29;;;;;;;24.33;5.60;;;10.30;99.90;;;;;;5029248;28;20251;-68
2022/02/20 09:58:57;;;;;;;33.47;6.07;;;10.40;99.90;;;;;;5032640;28;20711;-68
2022/02/20 10:01:28;;;;;;;32.60;5.27;;;10.40;99.90;;;;;;5026201;28;20197;-67
2022/02/20 10:03:56;;;;;;;35.13;5.43;;;10.40;99.90;;;;;;5029828;28;20197;-68
2022/02/20 10:06:26;;;;;;;22.70;4.93;;;10.40;99.90;;;;;;5022469;28;20201;-68
2022/02/20 10:08:59;;;;;;;27.97;5.00;;;10.40;99.90;;;;;;5028400;28;20312;-68
2022/02/20 10:11:29;;;;;;;28.60;5.30;;;10.30;99.90;;;;;;5039472;28;20204;-68
2022/02/20 10:14:15;;;;;;;34.73;6.03;;;10.30;99.90;;;;;;5024574;28;20233;-68
2022/02/20 10:16:43;;;;;;;31.73;5.17;;;10.30;99.90;;;;;;5031838;28;20186;-67
2022/02/20 10:19:13;;;;;;;32.97;5.20;;;10.40;99.90;;;;;;5023685;28;20272;-68
2022/02/20 10:21:46;;;;;;;34.33;5.63;;;10.40;99.90;;;;;;5035034;28;20202;-68
2022/02/20 10:24:16;;;;;;;27.87;5.30;;;10.50;99.90;;;;;;5030499;28;20225;-68
2022/02/20 10:26:46;;;;;;;38.63;6.10;;;10.50;99.90;;;;;;5030564;28;20199;-68
2022/02/20 10:29:16;;;;;;;36.67;5.83;;;10.50;99.90;;;;;;5026882;28;20237;-68
2022/02/20 10:31:47;;;;;;;36.30;6.07;;;10.50;99.90;;;;;;5026541;28;20196;-68
2022/02/20 10:34:17;;;;;;;36.03;5.70;;;10.60;99.90;;;;;;5033418;28;20212;-68
2022/02/20 10:36:53;;;;;;;30.47;5.67;;;10.60;99.90;;;;;;5029154;28;20205;-68
2022/02/20 10:39:26;;;;;;;27.33;5.27;;;10.60;99.90;;;;;;5019973;28;20228;-67
2022/02/20 10:41:57;;;;;;;28.07;5.47;;;10.70;99.90;;;;;;5033126;28;20193;-68
2022/02/20 10:44:25;;;;;;;29.67;5.77;;;10.70;99.90;;;;;;5025994;28;20685;-68
2022/02/20 10:47:10;;;;;;;40.83;5.93;;;10.70;99.90;;;;;;5026539;28;20209;-68
2022/02/20 10:49:38;;;;;;;32.97;6.17;;;10.70;99.90;;;;;;5028341;28;20763;-67
2022/02/20 10:52:19;;;;;;;35.80;5.87;;;10.60;99.90;;;;;;5029564;28;20244;-68
2022/02/20 10:55:09;;;;;;;37.37;5.13;;;10.70;99.90;;;;;;5025072;28;20685;-67
2022/02/20 10:57:49;;;;;;;38.10;6.03;;;10.60;99.90;;;;;;5030420;28;20197;-68
2022/02/20 11:00:20;;;;;;;31.10;5.47;;;10.60;99.90;;;;;;5033837;28;20195;-68
2022/02/20 11:03:13;;;;;;;33.90;6.00;;;10.50;99.90;;;;;;5028270;28;20589;-68
2022/02/20 11:05:43;;;;;;;38.47;6.80;;;10.50;99.90;;;;;;5023696;28;20202;-68
2022/02/20 11:08:13;;;;;;;36.53;6.20;;;10.50;99.90;;;;;;5029321;28;20730;-68
2022/02/20 11:10:44;;;;;;;43.20;6.07;;;10.50;99.90;;;;;;5039573;28;20202;-68
2022/02/20 11:13:14;;;;;;;37.03;5.57;;;10.50;99.90;;;;;;5021784;28;20197;-68
2022/02/20 11:15:45;;;;;;;39.17;6.00;;;10.60;99.90;;;;;;5033715;28;20581;-68
2022/02/20 11:18:16;;;;;;;45.53;6.53;;;10.60;99.90;;;;;;5015439;28;20319;-68
2022/02/20 11:20:47;;;;;;;39.33;6.13;;;10.60;99.90;;;;;;5029779;28;20190;-68
2022/02/20 11:23:23;;;;;;;41.80;6.97;;;10.60;99.90;;;;;;5030367;28;20286;-68
2022/02/20 11:25:55;;;;;;;41.40;5.97;;;10.60;99.90;;;;;;5034011;28;20205;-68
2022/02/20 11:28:24;;;;;;;32.37;6.47;;;10.60;99.90;;;;;;5020772;28;20193;-68
2022/02/20 11:30:53;;;;;;;27.70;5.63;;;10.50;99.90;;;;;;5026727;28;20689;-68
2022/02/20 11:33:22;;;;;;;31.53;5.80;;;10.50;99.90;;;;;;5029002;28;20725;-69
2022/02/20 11:35:53;;;;;;;40.03;6.63;;;10.60;99.90;;;;;;5023633;28;20659;-68
2022/02/20 11:38:25;;;;;;;40.03;6.47;;;10.60;99.90;;;;;;5022049;28;20185;-68
2022/02/20 11:41:02;;;;;;;47.00;6.43;;;10.60;99.90;;;;;;5026160;28;20182;-69
2022/02/20 11:43:44;;;;;;;38.30;6.40;;;10.60;99.90;;;;;;5034261;28;20685;-68
2022/02/20 11:46:15;;;;;;;37.40;6.50;;;10.60;99.90;;;;;;5020062;28;20566;-68
2022/02/20 11:49:26;;;;;;;39.03;5.60;;;10.50;99.90;;;;;;5028219;28;20276;-68
2022/02/20 11:52:06;;;;;;;35.20;5.97;;;10.50;99.90;;;;;;5022836;28;20586;-68
2022/02/20 11:54:36;;;;;;;40.47;6.93;;;10.50;99.90;;;;;;5027372;28;20235;-68
2022/02/20 11:57:28;;;;;;;41.27;6.77;;;10.60;99.90;;;;;;5030479;28;20193;-68
2022/02/20 12:00:22;;;;;;;37.23;6.80;;;10.50;99.90;;;;;;5018337;28;20609;-68
2022/02/20 12:03:19;;;;;;;49.37;7.37;;;10.60;99.90;;;;;;5027129;28;20639;-68
2022/02/20 12:06:22;;;;;;;32.13;5.60;;;10.60;99.90;;;;;;5013197;28;20216;-68
2022/02/20 12:08:53;;;;;;;31.00;6.40;;;10.60;99.90;;;;;;5028527;28;20476;-68
2022/02/20 12:11:24;;;;;;;35.10;6.20;;;10.60;99.90;;;;;;5019969;28;20749;-68
2022/02/20 12:13:55;;;;;;;51.00;7.03;;;10.70;99.90;;;;;;5035303;28;20666;-69
2022/02/20 12:16:26;;;;;;;35.13;5.93;;;10.80;99.90;;;;;;5020320;28;20260;-68
2022/02/20 12:19:17;;;;;;;35.67;6.40;;;10.80;99.90;;;;;;5028119;28;20198;-68
2022/02/20 12:22:00;;;;;;;48.27;7.37;;;10.80;99.90;;;;;;5032269;28;20221;-68
2022/02/20 12:24:40;;;;;;;40.63;7.33;;;10.90;99.90;;;;;;5028195;28;20742;-68
2022/02/20 12:27:12;;;;;;;40.67;6.13;;;10.90;99.90;;;;;;5035555;28;20196;-68
2022/02/20 12:29:46;;;;;;;41.00;6.60;;;10.90;99.90;;;;;;5026729;28;20759;-68
2022/02/20 12:32:27;;;;;;;40.10;7.03;;;10.90;99.90;;;;;;5029478;28;21013;-68
2022/02/20 12:35:15;;;;;;;30.53;5.63;;;10.90;99.90;;;;;;5029018;28;20204;-68
2022/02/20 12:37:46;;;;;;;41.20;6.57;;;10.90;99.90;;;;;;5029447;28;20205;-68
2022/02/20 12:40:17;;;;;;;32.40;5.57;;;10.90;99.90;;;;;;5034347;28;20216;-68
2022/02/20 12:42:48;;;;;;;33.47;6.17;;;10.90;99.90;;;;;;5034462;28;20744;-69
2022/02/20 12:45:23;;;;;;;33.33;5.83;;;10.80;99.90;;;;;;5029039;28;20260;-69
2022/02/20 12:47:53;;;;;;;31.03;6.17;;;10.80;99.90;;;;;;5030296;28;20271;-68
2022/02/20 12:50:25;;;;;;;45.63;6.43;;;10.80;99.90;;;;;;5033051;28;20217;-68
2022/02/20 12:52:55;;;;;;;36.03;7.00;;;10.80;99.90;;;;;;5034623;28;20205;-67
2022/02/20 12:55:24;;;;;;;34.83;6.70;;;10.80;99.90;;;;;;5029923;28;20868;-68
2022/02/20 12:57:58;;;;;;;41.67;7.10;;;10.70;99.90;;;;;;5032369;28;20256;-68
2022/02/20 13:00:30;;;;;;;35.13;6.03;;;10.70;99.90;;;;;;5026235;28;20216;-68
2022/02/20 13:02:59;;;;;;;33.63;5.57;;;10.70;99.90;;;;;;5031465;28;20252;-68